Time;durP1;ratioP1;P1;durP2;ratioP2;P2;SDS_P1;SDS_P2;PMS_P1;PMS_P2;Temp;Humidity;BMP_temperature;BMP_pressure;BME280_temperature;BME280_humidity;BME280_pressure;Samples;Min_cycle;Max_cycle;Signal;HPM_P1;HPM_P2
2021/12/03 00:02:27;;;;;;;11.60;5.80;;;;;;;1.00;66.36;98570.95;103632;1312;139103;-67
2021/12/03 00:05:00;;;;;;;11.70;6.30;;;;;;;0.99;66.40;98583.45;103774;1312;111327;-67
2021/12/03 00:07:33;;;;;;;12.20;6.10;;;;;;;0.95;66.54;98590.21;103813;1312;109526;-68
2021/12/03 00:10:07;;;;;;;11.80;6.20;;;;;;;0.93;66.55;98591.45;103621;1312;137618;-67
2021/12/03 00:12:40;;;;;;;12.00;6.00;;;;;;;0.92;66.55;98592.52;104756;1312;96512;-67
2021/12/03 00:15:14;;;;;;;14.70;6.30;;;;;;;0.90;66.74;98588.92;103612;1315;137118;-67
2021/12/03 00:17:46;;;;;;;9.10;5.50;;;;;;;0.90;66.79;98588.09;104816;1309;110977;-68
2021/12/03 00:36:28;;;;;;;14.60;6.20;;;;;;;0.82;67.16;98590.80;102581;1320;109262;-68
2021/12/03 00:39:01;;;;;;;12.70;5.80;;;;;;;0.80;67.25;98592.89;103046;1318;137422;-67
2021/12/03 00:41:40;;;;;;;12.80;6.00;;;;;;;0.80;67.32;98594.10;103122;1317;96571;-67
2021/12/03 00:44:12;;;;;;;11.50;6.00;;;;;;;0.78;67.36;98602.00;103122;1316;96522;-67
2021/12/03 00:46:45;;;;;;;13.90;6.70;;;;;;;0.75;67.33;98612.17;102998;1318;136939;-67
2021/12/03 00:49:17;;;;;;;12.10;6.20;;;;;;;0.71;67.31;98620.09;103205;1317;110667;-68
2021/12/03 00:51:50;;;;;;;9.20;5.60;;;;;;;0.69;67.47;98625.60;102982;1316;138324;-67
2021/12/03 00:54:22;;;;;;;12.10;5.90;;;;;;;0.67;67.55;98631.27;103127;1317;96659;-67
2021/12/03 00:56:55;;;;;;;9.70;5.10;;;;;;;0.68;67.78;98632.30;102987;1316;138713;-68
2021/12/03 00:59:27;;;;;;;11.00;6.00;;;;;;;0.70;67.82;98632.41;103127;1320;111219;-67
2021/12/03 01:02:00;;;;;;;11.60;5.30;;;;;;;0.72;67.80;98634.44;103217;1313;109260;-68
2021/12/03 01:04:33;;;;;;;10.00;5.60;;;;;;;0.73;67.61;98640.42;103609;1312;137309;-68
2021/12/03 01:07:06;;;;;;;11.60;5.60;;;;;;;0.72;67.77;98643.00;103740;1313;96533;-67
2021/12/03 01:09:39;;;;;;;10.50;5.70;;;;;;;0.71;67.95;98646.08;103968;1314;137102;-68
2021/12/03 01:12:13;;;;;;;9.40;5.40;;;;;;;0.70;67.96;98644.21;103753;1312;111130;-68
2021/12/03 01:14:45;;;;;;;11.80;5.60;;;;;;;0.70;68.05;98632.77;104795;1312;137343;-67
2021/12/03 01:17:18;;;;;;;10.20;5.50;;;;;;;0.69;67.95;98632.10;103747;1314;108858;-67
2021/12/03 01:19:51;;;;;;;10.30;5.50;;;;;;;0.68;68.11;98636.23;103749;1313;96520;-67
2021/12/03 01:22:23;;;;;;;10.10;5.50;;;;;;;0.67;68.33;98636.76;103563;1315;137214;-68
2021/12/03 01:24:56;;;;;;;13.30;5.40;;;;;;;0.67;68.31;98640.36;103778;1315;111073;-68
2021/12/03 01:27:29;;;;;;;11.30;5.30;;;;;;;0.66;68.38;98644.30;103690;1315;138483;-67
2021/12/03 01:30:02;;;;;;;12.10;5.60;;;;;;;0.66;68.35;98644.48;103698;1315;108519;-68
2021/12/03 01:32:34;;;;;;;10.10;5.30;;;;;;;0.65;68.51;98650.99;103599;1310;140583;-67
2021/12/03 01:35:10;;;;;;;10.60;5.50;;;;;;;0.64;68.55;98658.72;103752;1311;96478;-67
2021/12/03 01:37:43;;;;;;;8.60;5.50;;;;;;;0.67;68.69;98663.95;104824;1313;111405;-68
2021/12/03 01:40:20;;;;;;;13.50;6.60;;;;;;;0.68;68.47;98665.99;103747;1314;137349;-67
2021/12/03 01:42:53;;;;;;;10.50;5.90;;;;;;;0.69;68.44;98669.39;103516;1314;108434;-67
2021/12/03 01:45:28;;;;;;;11.40;6.00;;;;;;;0.69;68.64;98670.59;103604;1313;137258;-68
2021/12/03 01:48:01;;;;;;;11.60;6.20;;;;;;;0.68;68.43;98672.66;103852;1309;96494;-67
2021/12/03 01:50:38;;;;;;;11.20;5.90;;;;;;;0.66;68.66;98679.54;103692;1314;137399;-67
2021/12/03 01:53:13;;;;;;;10.10;5.50;;;;;;;0.62;68.71;98686.61;103709;1314;108486;-67
2021/12/03 01:55:47;;;;;;;11.70;5.60;;;;;;;0.62;68.78;98689.54;104508;1309;108253;-68
2021/12/03 01:58:19;;;;;;;11.50;6.00;;;;;;;0.62;68.83;98691.25;104882;1313;137869;-68
2021/12/03 02:00:54;;;;;;;8.90;5.40;;;;;;;0.64;68.74;98684.89;105002;1311;94757;-67
2021/12/03 02:03:30;;;;;;;10.60;6.10;;;;;;;0.68;68.88;98688.05;103857;1311;137960;-67
2021/12/03 02:06:05;;;;;;;12.20;6.20;;;;;;;0.70;68.85;98688.18;103729;1309;109069;-68
2021/12/03 02:08:38;;;;;;;12.00;6.00;;;;;;;0.72;68.92;98692.60;104285;1309;139222;-68
2021/12/03 02:11:12;;;;;;;12.20;6.10;;;;;;;0.72;68.90;98696.38;103831;1312;96506;-67
2021/12/03 02:13:44;;;;;;;12.50;6.40;;;;;;;0.70;68.90;98703.23;103752;1309;96614;-67
2021/12/03 02:16:19;;;;;;;10.30;6.30;;;;;;;0.69;68.97;98707.55;103711;1313;138630;-67
2021/12/03 02:18:52;;;;;;;12.30;6.30;;;;;;;0.67;69.15;98706.37;105063;1315;108915;-68
2021/12/03 02:21:25;;;;;;;10.50;5.90;;;;;;;0.66;69.00;98709.64;103985;1315;137744;-68
2021/12/03 02:23:58;;;;;;;10.60;5.80;;;;;;;0.63;69.11;98708.33;105027;1307;95628;-68
2021/12/03 02:26:30;;;;;;;10.30;6.20;;;;;;;0.60;69.13;98709.41;104479;1315;138024;-68
2021/12/03 02:29:03;;;;;;;11.70;6.00;;;;;;;0.58;69.20;98713.02;103708;1315;111362;-67
2021/12/03 02:31:36;;;;;;;8.80;5.10;;;;;;;0.58;69.32;98725.02;103453;1315;108938;-67
2021/12/03 02:34:08;;;;;;;10.80;6.00;;;;;;;0.57;69.31;98731.86;103475;1312;138431;-67
2021/12/03 02:36:41;;;;;;;12.70;6.20;;;;;;;0.58;69.60;98733.89;103594;1314;96461;-67
2021/12/03 02:39:13;;;;;;;11.10;6.00;;;;;;;0.58;69.62;98739.88;103661;1313;137072;-66
2021/12/03 02:41:46;;;;;;;13.40;6.00;;;;;;;0.57;69.55;98742.64;103721;1311;111135;-67
2021/12/03 02:44:19;;;;;;;16.40;6.40;;;;;;;0.54;69.61;98742.68;103726;1305;107244;-67
2021/12/03 02:46:51;;;;;;;11.70;6.40;;;;;;;0.51;69.87;98748.70;103632;1309;137265;-68
2021/12/03 02:49:24;;;;;;;12.70;6.20;;;;;;;0.47;70.01;98753.05;103703;1311;96927;-68
2021/12/03 02:51:56;;;;;;;14.70;7.00;;;;;;;0.42;69.94;98756.55;103598;1315;138511;-68
2021/12/03 02:54:29;;;;;;;13.00;6.20;;;;;;;0.36;70.18;98756.29;103795;1314;112419;-66
2021/12/03 02:57:01;;;;;;;12.50;6.40;;;;;;;0.34;70.32;98764.86;103703;1314;138670;-68
2021/12/03 02:59:34;;;;;;;9.30;5.70;;;;;;;0.32;70.61;98767.29;103782;1315;106748;-67
2021/12/03 03:02:08;;;;;;;10.90;6.40;;;;;;;0.31;70.66;98773.29;103679;1315;96501;-67
2021/12/03 03:04:56;;;;;;;13.00;6.70;;;;;;;0.29;70.56;98775.70;103608;1315;137608;-67
2021/12/03 03:07:31;;;;;;;11.40;6.30;;;;;;;0.27;70.82;98778.48;103662;1315;111314;-67
2021/12/03 03:10:04;;;;;;;10.30;5.70;;;;;;;0.22;70.91;98777.18;104924;1314;138039;-68
2021/12/03 03:12:37;;;;;;;11.70;6.70;;;;;;;0.22;71.07;98779.58;105055;1311;109524;-68
2021/12/03 03:15:11;;;;;;;11.90;6.40;;;;;;;0.23;71.12;98783.84;104964;1314;137804;-68
2021/12/03 03:17:45;;;;;;;10.30;6.10;;;;;;;0.20;70.93;98780.14;105046;1314;94588;-67
2021/12/03 03:20:19;;;;;;;11.20;6.30;;;;;;;0.17;70.99;98783.05;103983;1309;111280;-67
2021/12/03 03:22:52;;;;;;;11.50;6.50;;;;;;;0.14;71.09;98786.86;103653;1315;137044;-67
2021/12/03 03:25:25;;;;;;;10.90;6.40;;;;;;;0.14;71.38;98791.64;103740;1312;109210;-67
2021/12/03 03:27:57;;;;;;;11.30;6.60;;;;;;;0.11;71.38;98795.45;103563;1312;138982;-67
2021/12/03 03:30:30;;;;;;;9.10;6.00;;;;;;;0.07;71.33;98797.91;103520;1315;96557;-67
2021/12/03 03:33:04;;;;;;;11.20;6.40;;;;;;;0.05;71.66;98798.63;103581;1312;138059;-67
2021/12/03 03:35:36;;;;;;;12.00;6.00;;;;;;;0.03;71.85;98803.60;104032;1315;109220;-67
2021/12/03 03:38:10;;;;;;;11.60;6.40;;;;;;;0.06;72.02;98807.84;103727;1314;108938;-67
2021/12/03 03:40:44;;;;;;;12.30;6.50;;;;;;;0.10;72.05;98813.75;103673;1315;138125;-67
2021/12/03 03:43:18;;;;;;;11.60;6.50;;;;;;;0.13;72.01;98822.25;103470;1311;96603;-67
2021/12/03 03:45:51;;;;;;;10.10;6.00;;;;;;;0.15;72.18;98829.07;103705;1315;137180;-67
2021/12/03 03:48:25;;;;;;;11.70;6.50;;;;;;;0.14;72.19;98833.52;103776;1315;109084;-67
2021/12/03 03:50:57;;;;;;;13.70;7.20;;;;;;;0.12;72.09;98837.30;103613;1315;137782;-67
2021/12/03 03:53:29;;;;;;;12.10;6.70;;;;;;;0.08;72.24;98836.17;103723;1312;96595;-68
2021/12/03 03:56:01;;;;;;;11.90;6.80;;;;;;;0.04;72.12;98839.48;103747;1314;96383;-67
2021/12/03 03:58:34;;;;;;;11.00;6.30;;;;;;;0.00;72.24;98846.52;103588;1315;137803;-67
2021/12/03 04:01:07;;;;;;;11.10;6.10;;;;;;;-0.04;72.33;98849.12;103689;1310;108478;-67
2021/12/03 04:03:41;;;;;;;11.70;6.80;;;;;;;-0.06;72.58;98846.92;103585;1308;138105;-67
2021/12/03 04:06:14;;;;;;;13.20;6.20;;;;;;;-0.05;72.91;98849.30;103778;1314;96485;-67
2021/12/03 04:08:47;;;;;;;10.70;6.70;;;;;;;-0.04;72.88;98843.30;103654;1315;138307;-67
2021/12/03 04:11:24;;;;;;;13.50;6.90;;;;;;;-0.00;72.95;98846.34;103719;1315;110844;-67
2021/12/03 04:13:56;;;;;;;10.10;6.80;;;;;;;0.02;72.92;98850.45;103634;1315;108906;-67
2021/12/03 04:16:29;;;;;;;12.00;7.40;;;;;;;0.01;73.14;98845.33;103657;1315;137707;-67
2021/12/03 04:19:01;;;;;;;10.10;6.90;;;;;;;0.00;72.88;98849.25;103698;1314;96531;-67
2021/12/03 04:21:33;;;;;;;13.20;7.30;;;;;;;0.01;72.92;98849.59;103548;1315;138431;-67
2021/12/03 04:24:07;;;;;;;11.60;7.40;;;;;;;-0.03;73.20;98855.08;103711;1315;111676;-67
2021/12/03 04:26:40;;;;;;;12.80;7.30;;;;;;;-0.06;72.93;98851.88;103767;1314;138242;-68
2021/12/03 04:29:12;;;;;;;11.10;7.40;;;;;;;-0.09;72.99;98851.74;103442;1316;108724;-68
2021/12/03 04:31:44;;;;;;;11.10;6.60;;;;;;;-0.10;73.29;98854.84;103659;1315;96491;-67
2021/12/03 04:34:16;;;;;;;11.40;6.60;;;;;;;-0.11;73.22;98855.36;103591;1315;137958;-67
2021/12/03 04:36:48;;;;;;;11.00;6.40;;;;;;;-0.12;73.41;98861.86;103693;1312;110880;-68
2021/12/03 04:39:21;;;;;;;12.10;6.90;;;;;;;-0.12;73.94;98866.31;103567;1316;138444;-67
2021/12/03 04:41:53;;;;;;;11.70;7.10;;;;;;;-0.09;73.88;98868.15;103759;1315;108851;-69
2021/12/03 04:44:28;;;;;;;13.40;7.30;;;;;;;-0.04;73.99;98873.21;103672;1311;96510;-67
2021/12/03 04:47:01;;;;;;;12.70;6.90;;;;;;;-0.02;73.95;98879.33;104778;1315;137769;-68
2021/12/03 04:49:33;;;;;;;11.80;7.40;;;;;;;0.02;73.80;98885.63;103781;1313;112227;-68
2021/12/03 04:52:07;;;;;;;11.80;7.40;;;;;;;0.07;74.08;98886.41;104943;1315;137626;-68
2021/12/03 04:54:40;;;;;;;10.80;7.30;;;;;;;0.13;74.14;98887.02;103683;1312;108634;-66
2021/12/03 04:57:12;;;;;;;11.30;7.20;;;;;;;0.18;73.72;98889.87;103611;1315;137439;-68
2021/12/03 04:59:45;;;;;;;9.90;7.00;;;;;;;0.18;73.68;98881.67;103722;1315;96515;-68
2021/12/03 05:02:18;;;;;;;10.80;7.20;;;;;;;0.20;73.40;98884.23;103690;1311;111076;-68
2021/12/03 05:04:53;;;;;;;14.30;7.90;;;;;;;0.21;73.24;98889.34;103866;1315;137237;-68
2021/12/03 05:07:30;;;;;;;10.00;7.20;;;;;;;0.20;73.02;98897.90;103635;1315;109089;-68
2021/12/03 05:10:04;;;;;;;12.40;8.00;;;;;;;0.18;72.89;98901.68;104315;1315;137608;-68
2021/12/03 05:12:37;;;;;;;11.80;7.10;;;;;;;0.19;72.86;98902.70;103955;1309;96513;-67
2021/12/03 05:15:29;;;;;;;11.80;6.90;;;;;;;0.20;73.13;98904.73;104505;1314;138074;-67
2021/12/03 05:18:03;;;;;;;9.50;6.60;;;;;;;0.26;73.14;98913.20;103639;1309;109259;-67
2021/12/03 05:20:35;;;;;;;9.20;6.40;;;;;;;0.32;72.86;98916.53;104955;1311;108919;-68
2021/12/03 05:23:07;;;;;;;11.00;6.40;;;;;;;0.36;72.55;98920.77;104758;1309;137125;-69
2021/12/03 05:25:40;;;;;;;9.50;7.10;;;;;;;0.38;72.36;98920.75;104855;1312;95057;-69
2021/12/03 05:28:15;;;;;;;8.90;6.40;;;;;;;0.40;72.01;98925.85;104472;1309;137920;-68
2021/12/03 05:30:50;;;;;;;14.60;6.80;;;;;;;0.42;71.29;98925.48;104220;1315;109002;-68
2021/12/03 05:33:23;;;;;;;7.80;5.90;;;;;;;0.43;70.57;98931.97;104479;1311;137688;-67
2021/12/03 05:35:55;;;;;;;10.90;6.20;;;;;;;0.43;69.94;98937.63;103872;1312;96501;-67
2021/12/03 05:38:27;;;;;;;7.60;6.00;;;;;;;0.41;69.34;98943.27;104039;1315;96467;-67
2021/12/03 05:41:00;;;;;;;9.10;6.30;;;;;;;0.40;69.06;98953.90;104292;1312;139170;-67
2021/12/03 05:43:32;;;;;;;7.90;6.70;;;;;;;0.40;68.79;98952.70;103689;1312;108853;-67
2021/12/03 05:46:04;;;;;;;8.00;6.80;;;;;;;0.39;68.65;98954.77;103840;1312;138576;-68
2021/12/03 05:48:37;;;;;;;11.60;8.00;;;;;;;0.40;68.75;98961.77;103680;1312;96465;-67
2021/12/03 05:51:10;;;;;;;11.20;7.70;;;;;;;0.40;69.14;98966.21;103548;1314;138334;-67
2021/12/03 05:53:42;;;;;;;9.70;7.30;;;;;;;0.40;69.89;98965.02;103703;1315;111186;-67
2021/12/03 05:56:14;;;;;;;12.30;7.10;;;;;;;0.39;70.56;98969.30;103770;1315;108830;-66
2021/12/03 05:58:48;;;;;;;9.10;6.30;;;;;;;0.37;70.77;98970.69;103504;1314;137866;-67
2021/12/03 06:01:21;;;;;;;8.20;6.30;;;;;;;0.35;70.91;98968.82;103568;1312;97715;-67
2021/12/03 06:03:53;;;;;;;7.90;5.90;;;;;;;0.34;70.92;98965.92;103569;1312;137758;-66
2021/12/03 06:06:26;;;;;;;7.60;5.20;;;;;;;0.34;70.83;98969.85;103504;1316;111441;-68
2021/12/03 06:08:58;;;;;;;7.40;5.20;;;;;;;0.31;70.84;98973.14;103508;1315;137278;-68
2021/12/03 06:11:30;;;;;;;7.60;5.20;;;;;;;0.31;70.66;98972.63;103634;1310;108259;-68
2021/12/03 06:14:02;;;;;;;7.40;4.40;;;;;;;0.26;70.24;98974.91;103705;1310;96628;-69
2021/12/03 06:16:35;;;;;;;5.60;4.30;;;;;;;0.19;70.10;98972.09;103463;1313;137053;-67
2021/12/03 06:19:07;;;;;;;6.20;4.50;;;;;;;0.13;69.44;98969.05;103685;1309;110983;-66
2021/12/03 06:21:39;;;;;;;8.50;4.70;;;;;;;0.08;69.52;98978.86;103663;1306;137891;-67
2021/12/03 06:24:11;;;;;;;5.90;4.90;;;;;;;0.02;69.00;98985.59;103442;1311;107862;-67
2021/12/03 06:26:44;;;;;;;6.80;3.90;;;;;;;-0.05;68.52;98982.23;103684;1315;96590;-68
2021/12/03 06:29:16;;;;;;;5.20;3.90;;;;;;;-0.12;68.55;98975.48;104887;1316;136908;-67
2021/12/03 06:31:48;;;;;;;6.10;4.40;;;;;;;-0.20;68.72;98986.48;104997;1310;111296;-67
2021/12/03 06:34:20;;;;;;;5.90;4.60;;;;;;;-0.28;68.72;98988.27;104769;1311;137526;-67
2021/12/03 06:36:52;;;;;;;6.50;4.20;;;;;;;-0.34;69.04;98993.10;104999;1313;108555;-68
2021/12/03 06:39:24;;;;;;;5.70;4.40;;;;;;;-0.40;69.28;99002.17;104943;1313;138582;-67
2021/12/03 06:41:57;;;;;;;6.40;4.50;;;;;;;-0.43;69.44;99000.17;105014;1314;94743;-68
2021/12/03 06:44:29;;;;;;;6.80;4.40;;;;;;;-0.43;69.54;99007.00;104269;1309;110166;-68
2021/12/03 06:47:02;;;;;;;5.30;4.10;;;;;;;-0.42;69.81;99016.38;103589;1312;138920;-67
2021/12/03 06:49:34;;;;;;;7.90;5.00;;;;;;;-0.36;70.23;99022.83;103567;1312;108913;-69
2021/12/03 06:52:11;;;;;;;7.50;5.10;;;;;;;-0.31;70.46;99030.31;103509;1312;137249;-67
2021/12/03 06:54:51;;;;;;;8.80;5.60;;;;;;;-0.27;70.50;99034.20;104669;1313;94640;-68
2021/12/03 06:57:23;;;;;;;9.60;5.80;;;;;;;-0.27;70.77;99042.40;104838;1310;137654;-69
2021/12/03 06:59:55;;;;;;;8.70;6.10;;;;;;;-0.28;70.87;99042.24;104926;1312;109076;-69
2021/12/03 07:02:27;;;;;;;8.90;6.50;;;;;;;-0.30;70.54;99049.42;104261;1301;108863;-67
2021/12/03 07:05:00;;;;;;;9.30;6.90;;;;;;;-0.33;70.73;99053.73;103252;1311;137357;-70
2021/12/03 07:07:32;;;;;;;9.00;6.60;;;;;;;-0.33;70.81;99054.23;103438;1312;96533;-69
2021/12/03 07:10:06;;;;;;;12.70;6.80;;;;;;;-0.31;70.85;99063.61;103356;1311;138160;-69
2021/12/03 07:12:38;;;;;;;7.50;5.70;;;;;;;-0.28;70.89;99061.02;104437;1312;108840;-69
2021/12/03 07:15:11;;;;;;;8.00;5.70;;;;;;;-0.26;71.13;99065.44;104265;1310;138214;-69
2021/12/03 07:17:43;;;;;;;6.90;5.30;;;;;;;-0.20;70.73;99064.54;103202;1312;96526;-68
2021/12/03 07:20:15;;;;;;;8.40;5.20;;;;;;;-0.18;70.49;99066.94;103291;1311;96588;-68
2021/12/03 07:22:47;;;;;;;8.80;6.20;;;;;;;-0.14;70.71;99071.86;103305;1312;137038;-70
2021/12/03 07:25:20;;;;;;;9.30;6.20;;;;;;;-0.09;70.78;99076.42;103448;1311;110100;-68
2021/12/03 07:27:53;;;;;;;8.70;6.40;;;;;;;-0.08;70.68;99079.48;103316;1315;137484;-68
2021/12/03 07:30:30;;;;;;;10.50;6.60;;;;;;;-0.05;70.91;99082.52;103381;1312;96509;-68
2021/12/03 07:33:03;;;;;;;8.60;6.60;;;;;;;-0.04;70.74;99083.55;103423;1314;137795;-68
2021/12/03 07:35:35;;;;;;;8.40;6.70;;;;;;;-0.04;70.75;99085.42;103376;1313;111750;-69
2021/12/03 07:38:08;;;;;;;8.10;6.70;;;;;;;-0.05;70.59;99086.45;103400;1311;109256;-68
2021/12/03 07:40:40;;;;;;;10.00;6.50;;;;;;;-0.06;70.57;99086.98;103295;1311;138329;-69
2021/12/03 07:43:14;;;;;;;9.70;6.70;;;;;;;-0.06;70.44;99091.59;103379;1312;96608;-69
2021/12/03 07:45:47;;;;;;;10.80;6.80;;;;;;;-0.03;70.61;99097.20;103389;1311;137054;-68
2021/12/03 07:48:21;;;;;;;9.50;7.40;;;;;;;-0.03;70.61;99100.79;104680;1308;111277;-68
2021/12/03 07:50:56;;;;;;;12.00;7.80;;;;;;;0.01;70.75;99104.70;104018;1311;137724;-68
2021/12/03 07:53:29;;;;;;;10.00;7.50;;;;;;;0.15;70.92;99103.23;104757;1312;108940;-69
2021/12/03 07:56:01;;;;;;;9.40;7.10;;;;;;;0.36;70.59;99107.64;104370;1312;94774;-67
2021/12/03 07:58:33;;;;;;;8.80;6.40;;;;;;;0.51;70.14;99102.88;104768;1312;137322;-68
2021/12/03 08:01:06;;;;;;;7.70;5.60;;;;;;;0.66;69.41;99103.94;104840;1312;108869;-67
2021/12/03 08:03:38;;;;;;;8.40;5.30;;;;;;;0.93;69.33;99108.77;103371;1312;137033;-67
2021/12/03 08:06:12;;;;;;;6.20;5.00;;;;;;;1.22;68.66;99112.02;103722;1312;108483;-68
2021/12/03 08:08:44;;;;;;;9.30;6.10;;;;;;;1.55;68.21;99112.09;103282;1315;96483;-67
2021/12/03 08:11:17;;;;;;;10.00;5.40;;;;;;;1.73;67.80;99110.96;103167;1312;136716;-68
2021/12/03 08:13:49;;;;;;;5.90;5.00;;;;;;;1.89;67.20;99107.14;103891;1312;111343;-69
2021/12/03 08:16:21;;;;;;;7.20;5.20;;;;;;;2.15;66.94;99105.52;104482;1312;138089;-68
2021/12/03 08:18:53;;;;;;;8.30;4.50;;;;;;;2.43;66.42;99106.23;104597;1312;108641;-67
2021/12/03 08:21:25;;;;;;;6.00;4.50;;;;;;;2.75;65.98;99110.64;104651;1311;137858;-69
2021/12/03 08:23:59;;;;;;;7.80;4.60;;;;;;;2.97;64.97;99102.31;104331;1311;96530;-67
2021/12/03 08:26:32;;;;;;;7.50;4.30;;;;;;;3.19;64.61;99100.16;103451;1312;117184;-67
2021/12/03 08:29:06;;;;;;;6.20;4.10;;;;;;;3.35;63.93;99101.02;103679;1316;137267;-68
2021/12/03 08:31:40;;;;;;;7.30;3.70;;;;;;;3.56;63.80;99101.42;104025;1311;108849;-68
2021/12/03 08:34:12;;;;;;;10.10;3.40;;;;;;;3.80;63.50;99102.60;104119;1312;137828;-68
2021/12/03 08:36:44;;;;;;;7.60;3.50;;;;;;;3.89;62.92;99100.48;104609;1308;95373;-67
2021/12/03 08:39:16;;;;;;;5.40;3.40;;;;;;;4.07;62.47;99103.34;104026;1308;137073;-68
2021/12/03 08:41:48;;;;;;;5.50;3.70;;;;;;;4.35;62.04;99105.06;103728;1312;109160;-68
2021/12/03 08:44:21;;;;;;;5.90;3.80;;;;;;;4.59;61.22;99106.34;104628;1312;110417;-69
2021/12/03 08:46:59;;;;;;;6.90;3.60;;;;;;;4.78;60.39;99109.63;104637;1314;138276;-68
2021/12/03 08:49:33;;;;;;;6.50;3.60;;;;;;;5.02;59.62;99106.91;104746;1309;94713;-68
2021/12/03 08:52:48;;;;;;;6.90;3.90;;;;;;;5.15;59.11;99100.15;103884;1311;137976;-67
2021/12/03 08:55:20;;;;;;;5.30;3.70;;;;;;;5.15;57.75;99102.91;103486;1312;109266;-67
2021/12/03 08:57:52;;;;;;;4.90;3.50;;;;;;;4.89;57.48;99099.17;103344;1312;137139;-69
2021/12/03 09:00:25;;;;;;;8.80;4.60;;;;;;;4.81;58.12;99101.25;103211;1312;96601;-68
2021/12/03 09:02:57;;;;;;;6.80;3.60;;;;;;;4.87;58.33;99102.84;102950;1311;137098;-67
2021/12/03 09:05:36;;;;;;;5.80;3.60;;;;;;;5.04;57.98;99107.85;103311;1312;110611;-67
2021/12/03 09:08:08;;;;;;;6.40;3.50;;;;;;;5.31;58.16;99104.34;103704;1318;108694;-67
2021/12/03 09:10:43;;;;;;;7.90;3.70;;;;;;;5.49;57.54;99105.02;103837;1311;136187;-68
2021/12/03 09:13:15;;;;;;;6.30;3.50;;;;;;;5.52;56.71;99105.45;103506;1312;96530;-67
2021/12/03 09:15:53;;;;;;;7.30;3.60;;;;;;;5.58;56.77;99102.02;103276;1314;136925;-67
2021/12/03 09:18:32;;;;;;;8.90;3.60;;;;;;;5.61;55.55;99104.17;104335;1312;111152;-67
2021/12/03 09:21:25;;;;;;;4.80;3.50;;;;;;;5.61;56.34;99099.66;104093;1312;138944;-67
2021/12/03 09:24:08;;;;;;;5.80;3.40;;;;;;;5.68;55.80;99096.34;103478;1311;109052;-67
2021/12/03 09:26:41;;;;;;;11.00;3.80;;;;;;;5.81;55.85;99089.92;103380;1311;97115;-67
2021/12/03 09:29:23;;;;;;;7.30;3.80;;;;;;;5.86;55.38;99096.83;103138;1312;137064;-67
2021/12/03 09:31:56;;;;;;;6.90;3.50;;;;;;;5.81;54.47;99088.85;104319;1309;110814;-67
2021/12/03 09:34:30;;;;;;;6.30;3.60;;;;;;;5.82;55.04;99090.39;103951;1312;137552;-67
2021/12/03 09:37:03;;;;;;;7.40;3.80;;;;;;;5.92;54.57;99085.61;103456;1311;109242;-66
2021/12/03 09:39:39;;;;;;;7.80;3.60;;;;;;;6.01;54.59;99087.90;103354;1313;138086;-66
2021/12/03 09:42:14;;;;;;;9.50;3.90;;;;;;;6.01;53.57;99085.49;103389;1311;96524;-66
2021/12/03 09:44:49;;;;;;;9.10;3.80;;;;;;;5.92;54.05;99080.77;103512;1312;111179;-66
2021/12/03 09:47:22;;;;;;;11.40;4.60;;;;;;;5.85;53.42;99080.47;103046;1312;136884;-66
2021/12/03 09:49:56;;;;;;;7.10;4.20;;;;;;;5.68;53.68;99073.39;103218;1310;109651;-67
2021/12/03 09:52:32;;;;;;;8.80;4.30;;;;;;;5.67;54.01;99071.38;104641;1307;137536;-67
2021/12/03 09:55:09;;;;;;;10.90;4.40;;;;;;;5.80;53.78;99070.10;104657;1312;95991;-68
2021/12/03 09:57:45;;;;;;;8.60;4.50;;;;;;;5.67;53.23;99061.36;103973;1313;138257;-67
2021/12/03 10:00:32;;;;;;;9.10;4.90;;;;;;;5.49;53.55;99057.10;103920;1317;109240;-67
2021/12/03 10:03:18;;;;;;;12.10;5.10;;;;;;;5.24;53.66;99048.71;104177;1312;137237;-67
2021/12/03 10:14:54;;;;;;;12.80;5.40;;;;;;;4.60;54.90;99051.22;103301;1311;107848;-66
2021/12/03 10:20:31;;;;;;;8.80;4.70;;;;;;;4.22;55.53;99056.52;103222;1312;97092;-67
2021/12/03 10:26:48;;;;;;;5.20;3.20;;;;;;;3.93;55.69;99043.65;103245;1311;111231;-67
2021/12/03 10:29:40;;;;;;;9.70;3.80;;;;;;;3.96;56.05;99050.31;103288;1312;138353;-67
2021/12/03 10:35:36;;;;;;;8.80;3.80;;;;;;;4.11;56.75;99039.25;103314;1312;137519;-67
2021/12/03 10:46:55;;;;;;;7.50;3.70;;;;;;;4.77;55.81;99028.34;103332;1311;137595;-66
2021/12/03 10:49:48;;;;;;;9.30;4.20;;;;;;;4.86;55.99;99030.02;103195;1311;96587;-67
2021/12/03 10:52:29;;;;;;;7.10;3.20;;;;;;;4.96;56.21;99026.27;104666;1311;137712;-68
2021/12/03 10:55:38;;;;;;;8.50;4.20;;;;;;;5.11;55.57;99033.41;104021;1311;111192;-68
2021/12/03 11:02:07;;;;;;;6.30;3.70;;;;;;;4.69;55.40;99026.02;103166;1315;108879;-66
2021/12/03 11:14:20;;;;;;;9.80;3.90;;;;;;;3.96;56.72;99044.44;103097;1315;108926;-67
2021/12/03 12:43:27;;;;;;;11.10;4.40;;;;;;;2.03;64.56;99099.04;103458;1321;107451;-68
2021/12/03 14:36:49;;;;;;;17.50;7.20;;;;;;;1.87;66.39;99204.02;102795;1321;109258;-66
2021/12/03 14:42:26;;;;;;;15.70;6.70;;;;;;;1.77;66.74;99211.33;104225;1315;107990;-67
2021/12/03 14:45:08;;;;;;;19.20;6.80;;;;;;;1.73;66.73;99220.48;104378;1318;93436;-67
2021/12/03 14:48:09;;;;;;;14.20;6.80;;;;;;;1.72;66.82;99224.95;102967;1318;137601;-68
2021/12/03 14:53:42;;;;;;;14.00;6.40;;;;;;;1.70;66.75;99225.66;104303;1315;137747;-66
2021/12/03 14:56:20;;;;;;;15.40;6.80;;;;;;;1.71;66.73;99233.19;103241;1313;108170;-68
2021/12/03 14:59:15;;;;;;;16.80;7.20;;;;;;;1.74;66.82;99232.96;103961;1313;137387;-66
2021/12/03 15:01:58;;;;;;;19.00;7.80;;;;;;;1.78;66.85;99237.70;104214;1313;93388;-66
2021/12/03 15:04:53;;;;;;;16.30;7.50;;;;;;;1.80;66.74;99238.90;103758;1310;137069;-67
2021/12/03 15:07:32;;;;;;;19.00;7.90;;;;;;;1.78;66.70;99244.73;104472;1312;108894;-67
2021/12/03 15:10:10;;;;;;;22.20;8.80;;;;;;;1.77;66.69;99242.52;104048;1313;138991;-67
2021/12/03 15:27:47;;;;;;;16.20;7.10;;;;;;;1.68;66.92;99264.07;100270;1351;636922;-66
2021/12/03 15:30:28;;;;;;;15.10;6.60;;;;;;;1.64;66.93;99268.40;103347;1323;137296;-66
2021/12/03 15:33:05;;;;;;;19.10;7.30;;;;;;;1.63;66.90;99269.95;102866;1327;94455;-66
2021/12/03 15:35:49;;;;;;;14.60;6.60;;;;;;;1.62;66.94;99265.17;103838;1324;138091;-66
2021/12/03 15:38:51;;;;;;;18.50;7.20;;;;;;;1.63;67.02;99268.77;102892;1328;110388;-67
2021/12/03 15:53:24;;;;;;;16.40;7.20;;;;;;;1.65;66.92;99273.70;102978;1319;137214;-66
2021/12/03 16:04:28;;;;;;;17.90;7.60;;;;;;;1.57;67.31;99292.80;102478;1324;138905;-67
2021/12/03 16:07:14;;;;;;;16.70;6.70;;;;;;;1.57;67.20;99294.34;102949;1327;109100;-66
2021/12/03 16:09:58;;;;;;;13.90;7.10;;;;;;;1.58;67.28;99295.35;102421;1328;108485;-67
2021/12/03 16:12:43;;;;;;;16.00;6.90;;;;;;;1.60;67.33;99297.21;103346;1325;137325;-66
2021/12/03 16:26:48;;;;;;;15.50;6.10;;;;;;;1.66;67.29;99304.36;102401;1329;95294;-67
2021/12/03 16:43:42;;;;;;;14.90;5.70;;;;;;;1.64;67.20;99320.33;103104;1319;95306;-67
2021/12/03 16:52:07;;;;;;;13.30;6.50;;;;;;;1.74;67.33;99332.70;104176;1318;109210;-66
2021/12/03 16:55:01;;;;;;;15.20;6.60;;;;;;;1.76;67.12;99332.52;104226;1323;93378;-66
2021/12/03 16:57:35;;;;;;;16.20;6.40;;;;;;;1.77;67.19;99329.06;103150;1326;93563;-66
2021/12/03 17:00:19;;;;;;;17.80;6.90;;;;;;;1.77;67.25;99332.33;104103;1321;137730;-66
2021/12/03 17:02:56;;;;;;;15.50;6.90;;;;;;;1.77;67.21;99338.66;103912;1320;109225;-67
2021/12/03 17:08:38;;;;;;;15.80;6.90;;;;;;;1.73;67.08;99344.20;102913;1322;95187;-67
2021/12/03 17:11:36;;;;;;;15.60;7.10;;;;;;;1.71;67.02;99341.32;102827;1322;136991;-67
2021/12/03 17:14:42;;;;;;;14.10;7.20;;;;;;;1.69;67.23;99344.94;102947;1317;108945;-65
2021/12/03 17:57:11;;;;;;;11.20;6.30;;;;;;;1.62;66.64;99350.33;103104;1316;109791;-67
2021/12/03 17:59:46;;;;;;;13.80;7.10;;;;;;;1.62;66.57;99352.21;103017;1315;138108;-68
2021/12/03 18:02:25;;;;;;;16.30;6.60;;;;;;;1.61;66.54;99351.02;103043;1315;108909;-68
2021/12/03 18:07:52;;;;;;;13.20;6.60;;;;;;;1.58;66.53;99351.73;103331;1314;95225;-67
2021/12/03 18:16:40;;;;;;;18.50;7.30;;;;;;;1.38;66.45;99350.55;102885;1324;107705;-67
2021/12/03 18:43:11;;;;;;;15.90;7.60;;;;;;;1.29;66.58;99353.21;102738;1320;137819;-67